sensor_id;sensor_type;location;lat;lon;timestamp;P1;durP1;ratioP1;P2;durP2;ratioP2
22191;SDS011;11261;52.456;10.850;2023-07-28T00:01:21;4.95;;;4.45;;
22191;SDS011;11261;52.456;10.850;2023-07-28T00:03:51;8.82;;;5.28;;
22191;SDS011;11261;52.456;10.850;2023-07-28T00:06:19;6.60;;;4.95;;
22191;SDS011;11261;52.456;10.850;2023-07-28T00:08:47;8.02;;;5.60;;
22191;SDS011;11261;52.456;10.850;2023-07-28T00:11:16;6.75;;;5.25;;
22191;SDS011;11261;52.456;10.850;2023-07-28T00:13:44;6.03;;;5.00;;
22191;SDS011;11261;52.456;10.850;2023-07-28T00:16:12;8.13;;;4.72;;
22191;SDS011;11261;52.456;10.850;2023-07-28T00:18:41;9.20;;;5.82;;
22191;SDS011;11261;52.456;10.850;2023-07-28T00:21:11;8.02;;;6.85;;
22191;SDS011;11261;52.456;10.850;2023-07-28T00:23:39;5.88;;;4.68;;
22191;SDS011;11261;52.456;10.850;2023-07-28T00:26:07;6.35;;;5.07;;
22191;SDS011;11261;52.456;10.850;2023-07-28T00:28:36;5.63;;;4.90;;
22191;SDS011;11261;52.456;10.850;2023-07-28T00:31:04;6.10;;;5.47;;
22191;SDS011;11261;52.456;10.850;2023-07-28T00:33:32;9.35;;;5.30;;
22191;SDS011;11261;52.456;10.850;2023-07-28T00:36:00;6.60;;;5.78;;
22191;SDS011;11261;52.456;10.850;2023-07-28T00:38:30;6.72;;;5.72;;
22191;SDS011;11261;52.456;10.850;2023-07-28T00:40:58;8.07;;;5.78;;
22191;SDS011;11261;52.456;10.850;2023-07-28T00:43:26;7.60;;;4.95;;
22191;SDS011;11261;52.456;10.850;2023-07-28T00:45:54;6.28;;;4.82;;
22191;SDS011;11261;52.456;10.850;2023-07-28T00:48:23;10.20;;;5.40;;
22191;SDS011;11261;52.456;10.850;2023-07-28T00:50:53;9.32;;;4.60;;
22191;SDS011;11261;52.456;10.850;2023-07-28T00:53:21;6.60;;;4.43;;
22191;SDS011;11261;52.456;10.850;2023-07-28T00:55:52;5.95;;;4.70;;
22191;SDS011;11261;52.456;10.850;2023-07-28T00:58:21;4.50;;;4.03;;
22191;SDS011;11261;52.456;10.850;2023-07-28T01:00:49;5.45;;;4.63;;
22191;SDS011;11261;52.456;10.850;2023-07-28T01:03:18;7.05;;;4.68;;
22191;SDS011;11261;52.456;10.850;2023-07-28T01:05:49;4.85;;;4.18;;
22191;SDS011;11261;52.456;10.850;2023-07-28T01:08:25;7.75;;;4.72;;
22191;SDS011;11261;52.456;10.850;2023-07-28T01:10:59;5.82;;;3.45;;
22191;SDS011;11261;52.456;10.850;2023-07-28T01:13:27;5.15;;;3.90;;
22191;SDS011;11261;52.456;10.850;2023-07-28T01:15:56;5.03;;;3.85;;
22191;SDS011;11261;52.456;10.850;2023-07-28T01:18:27;6.25;;;3.65;;
22191;SDS011;11261;52.456;10.850;2023-07-28T01:20:56;4.03;;;3.10;;
22191;SDS011;11261;52.456;10.850;2023-07-28T01:23:31;6.25;;;3.60;;
22191;SDS011;11261;52.456;10.850;2023-07-28T01:26:10;5.82;;;4.25;;
22191;SDS011;11261;52.456;10.850;2023-07-28T01:28:41;6.20;;;4.60;;
22191;SDS011;11261;52.456;10.850;2023-07-28T01:31:10;6.72;;;3.08;;
22191;SDS011;11261;52.456;10.850;2023-07-28T01:33:39;4.25;;;3.78;;
22191;SDS011;11261;52.456;10.850;2023-07-28T01:36:07;4.75;;;3.95;;
22191;SDS011;11261;52.456;10.850;2023-07-28T01:38:36;4.00;;;3.60;;
22191;SDS011;11261;52.456;10.850;2023-07-28T01:41:04;4.25;;;3.53;;
22191;SDS011;11261;52.456;10.850;2023-07-28T01:43:33;6.78;;;3.70;;
22191;SDS011;11261;52.456;10.850;2023-07-28T01:46:02;4.55;;;3.38;;
22191;SDS011;11261;52.456;10.850;2023-07-28T01:48:31;5.88;;;4.15;;
22191;SDS011;11261;52.456;10.850;2023-07-28T01:50:59;6.47;;;4.70;;
22191;SDS011;11261;52.456;10.850;2023-07-28T01:53:27;4.88;;;4.05;;
22191;SDS011;11261;52.456;10.850;2023-07-28T01:55:55;6.88;;;4.18;;
22191;SDS011;11261;52.456;10.850;2023-07-28T01:58:24;5.57;;;4.03;;
22191;SDS011;11261;52.456;10.850;2023-07-28T02:00:52;5.22;;;4.10;;
22191;SDS011;11261;52.456;10.850;2023-07-28T02:03:22;4.25;;;3.85;;
22191;SDS011;11261;52.456;10.850;2023-07-28T02:05:50;5.70;;;4.15;;
22191;SDS011;11261;52.456;10.850;2023-07-28T02:08:19;6.20;;;4.70;;
22191;SDS011;11261;52.456;10.850;2023-07-28T02:10:47;6.28;;;4.57;;
22191;SDS011;11261;52.456;10.850;2023-07-28T02:13:15;4.80;;;4.30;;
22191;SDS011;11261;52.456;10.850;2023-07-28T02:15:44;4.40;;;4.00;;
22191;SDS011;11261;52.456;10.850;2023-07-28T02:18:12;5.00;;;4.50;;
22191;SDS011;11261;52.456;10.850;2023-07-28T02:20:42;4.25;;;3.85;;
22191;SDS011;11261;52.456;10.850;2023-07-28T02:23:10;5.85;;;4.20;;
22191;SDS011;11261;52.456;10.850;2023-07-28T02:25:40;5.00;;;4.50;;
22191;SDS011;11261;52.456;10.850;2023-07-28T02:28:09;4.85;;;3.90;;
22191;SDS011;11261;52.456;10.850;2023-07-28T02:30:38;8.25;;;4.30;;
22191;SDS011;11261;52.456;10.850;2023-07-28T02:33:06;5.43;;;3.90;;
22191;SDS011;11261;52.456;10.850;2023-07-28T02:35:34;6.80;;;4.10;;
22191;SDS011;11261;52.456;10.850;2023-07-28T02:38:04;5.07;;;4.55;;
22191;SDS011;11261;52.456;10.850;2023-07-28T02:40:32;4.53;;;3.97;;
22191;SDS011;11261;52.456;10.850;2023-07-28T02:43:01;4.70;;;3.72;;
22191;SDS011;11261;52.456;10.850;2023-07-28T02:45:29;4.55;;;4.00;;
22191;SDS011;11261;52.456;10.850;2023-07-28T02:47:57;5.00;;;4.00;;
22191;SDS011;11261;52.456;10.850;2023-07-28T02:50:25;4.88;;;3.55;;
22191;SDS011;11261;52.456;10.850;2023-07-28T02:52:54;6.45;;;3.83;;
22191;SDS011;11261;52.456;10.850;2023-07-28T02:55:24;4.38;;;3.72;;
22191;SDS011;11261;52.456;10.850;2023-07-28T02:57:52;4.47;;;3.70;;
22191;SDS011;11261;52.456;10.850;2023-07-28T03:00:20;7.22;;;3.75;;
22191;SDS011;11261;52.456;10.850;2023-07-28T03:02:49;2.97;;;2.55;;
22191;SDS011;11261;52.456;10.850;2023-07-28T03:05:17;5.07;;;3.80;;
22191;SDS011;11261;52.456;10.850;2023-07-28T03:07:47;4.53;;;3.78;;
22191;SDS011;11261;52.456;10.850;2023-07-28T03:10:15;4.32;;;3.75;;
22191;SDS011;11261;52.456;10.850;2023-07-28T03:12:45;3.92;;;3.33;;
22191;SDS011;11261;52.456;10.850;2023-07-28T03:15:13;3.65;;;3.03;;
22191;SDS011;11261;52.456;10.850;2023-07-28T03:17:41;4.45;;;3.33;;
22191;SDS011;11261;52.456;10.850;2023-07-28T03:20:10;4.32;;;3.65;;
22191;SDS011;11261;52.456;10.850;2023-07-28T03:22:38;4.20;;;3.70;;
22191;SDS011;11261;52.456;10.850;2023-07-28T03:25:07;4.15;;;3.60;;
22191;SDS011;11261;52.456;10.850;2023-07-28T03:27:36;4.47;;;3.70;;
22191;SDS011;11261;52.456;10.850;2023-07-28T03:30:06;6.00;;;3.17;;
22191;SDS011;11261;52.456;10.850;2023-07-28T03:32:37;5.88;;;3.60;;
22191;SDS011;11261;52.456;10.850;2023-07-28T03:35:06;4.28;;;3.25;;
22191;SDS011;11261;52.456;10.850;2023-07-28T03:37:35;8.00;;;3.78;;
22191;SDS011;11261;52.456;10.850;2023-07-28T03:40:04;4.75;;;3.30;;
22191;SDS011;11261;52.456;10.850;2023-07-28T03:42:33;3.17;;;2.70;;
22191;SDS011;11261;52.456;10.850;2023-07-28T03:45:01;4.25;;;3.20;;
22191;SDS011;11261;52.456;10.850;2023-07-28T03:47:32;4.80;;;3.42;;
22191;SDS011;11261;52.456;10.850;2023-07-28T03:50:00;3.83;;;3.42;;
22191;SDS011;11261;52.456;10.850;2023-07-28T03:52:28;3.65;;;3.20;;
22191;SDS011;11261;52.456;10.850;2023-07-28T03:54:57;2.95;;;2.67;;
22191;SDS011;11261;52.456;10.850;2023-07-28T03:57:25;3.00;;;2.70;;
22191;SDS011;11261;52.456;10.850;2023-07-28T03:59:53;5.97;;;2.72;;
22191;SDS011;11261;52.456;10.850;2023-07-28T04:02:21;3.35;;;2.60;;
22191;SDS011;11261;52.456;10.850;2023-07-28T04:04:54;4.53;;;3.28;;
22191;SDS011;11261;52.456;10.850;2023-07-28T04:07:23;3.58;;;2.83;;
22191;SDS011;11261;52.456;10.850;2023-07-28T04:09:51;3.15;;;2.85;;
22191;SDS011;11261;52.456;10.850;2023-07-28T04:12:19;5.60;;;2.85;;
22191;SDS011;11261;52.456;10.850;2023-07-28T04:14:47;2.95;;;2.47;;
22191;SDS011;11261;52.456;10.850;2023-07-28T04:17:16;4.82;;;2.40;;
22191;SDS011;11261;52.456;10.850;2023-07-28T04:19:44;4.88;;;2.33;;
22191;SDS011;11261;52.456;10.850;2023-07-28T04:22:14;3.08;;;2.78;;
22191;SDS011;11261;52.456;10.850;2023-07-28T04:24:47;3.65;;;2.58;;
22191;SDS011;11261;52.456;10.850;2023-07-28T04:27:15;3.05;;;2.38;;
22191;SDS011;11261;52.456;10.850;2023-07-28T04:29:44;3.28;;;2.30;;
22191;SDS011;11261;52.456;10.850;2023-07-28T04:32:12;3.35;;;2.15;;
22191;SDS011;11261;52.456;10.850;2023-07-28T04:34:41;2.40;;;1.90;;
22191;SDS011;11261;52.456;10.850;2023-07-28T04:37:09;3.78;;;2.03;;
22191;SDS011;11261;52.456;10.850;2023-07-28T04:39:38;2.80;;;2.33;;
22191;SDS011;11261;52.456;10.850;2023-07-28T04:42:07;2.90;;;2.08;;
22191;SDS011;11261;52.456;10.850;2023-07-28T04:44:36;3.30;;;2.33;;
22191;SDS011;11261;52.456;10.850;2023-07-28T04:47:05;2.55;;;2.03;;
22191;SDS011;11261;52.456;10.850;2023-07-28T04:49:33;4.75;;;2.15;;
22191;SDS011;11261;52.456;10.850;2023-07-28T04:52:02;2.50;;;2.03;;
22191;SDS011;11261;52.456;10.850;2023-07-28T04:54:30;3.15;;;1.90;;
22191;SDS011;11261;52.456;10.850;2023-07-28T04:57:00;2.33;;;2.13;;
22191;SDS011;11261;52.456;10.850;2023-07-28T04:59:28;2.00;;;1.70;;
22191;SDS011;11261;52.456;10.850;2023-07-28T05:01:56;2.10;;;1.90;;
22191;SDS011;11261;52.456;10.850;2023-07-28T05:04:24;3.75;;;1.73;;
22191;SDS011;11261;52.456;10.850;2023-07-28T05:06:53;2.90;;;1.98;;
22191;SDS011;11261;52.456;10.850;2023-07-28T05:09:22;3.97;;;2.10;;
22191;SDS011;11261;52.456;10.850;2023-07-28T05:11:50;3.75;;;2.03;;
22191;SDS011;11261;52.456;10.850;2023-07-28T05:14:19;4.35;;;1.73;;
22191;SDS011;11261;52.456;10.850;2023-07-28T05:16:48;2.10;;;1.88;;
22191;SDS011;11261;52.456;10.850;2023-07-28T05:19:16;2.60;;;1.88;;
22191;SDS011;11261;52.456;10.850;2023-07-28T05:21:44;2.45;;;1.80;;
22191;SDS011;11261;52.456;10.850;2023-07-28T05:24:13;3.72;;;1.92;;
22191;SDS011;11261;52.456;10.850;2023-07-28T05:26:41;3.47;;;1.85;;
22191;SDS011;11261;52.456;10.850;2023-07-28T05:29:09;2.08;;;1.55;;
22191;SDS011;11261;52.456;10.850;2023-07-28T05:31:39;2.67;;;1.90;;
22191;SDS011;11261;52.456;10.850;2023-07-28T05:34:07;2.67;;;1.88;;
22191;SDS011;11261;52.456;10.850;2023-07-28T05:36:38;4.40;;;2.78;;
22191;SDS011;11261;52.456;10.850;2023-07-28T05:39:07;2.15;;;1.95;;
22191;SDS011;11261;52.456;10.850;2023-07-28T05:41:36;2.28;;;1.77;;
22191;SDS011;11261;52.456;10.850;2023-07-28T05:44:04;2.08;;;1.55;;
22191;SDS011;11261;52.456;10.850;2023-07-28T05:46:32;3.90;;;1.83;;
22191;SDS011;11261;52.456;10.850;2023-07-28T05:49:03;3.05;;;1.83;;
22191;SDS011;11261;52.456;10.850;2023-07-28T05:51:31;1.73;;;1.63;;
22191;SDS011;11261;52.456;10.850;2023-07-28T05:54:00;2.05;;;1.58;;
22191;SDS011;11261;52.456;10.850;2023-07-28T05:56:28;2.78;;;1.88;;
22191;SDS011;11261;52.456;10.850;2023-07-28T05:58:57;2.80;;;1.63;;
22191;SDS011;11261;52.456;10.850;2023-07-28T06:01:25;1.80;;;1.50;;
22191;SDS011;11261;52.456;10.850;2023-07-28T06:03:53;4.18;;;1.75;;
22191;SDS011;11261;52.456;10.850;2023-07-28T06:06:27;1.55;;;1.45;;
22191;SDS011;11261;52.456;10.850;2023-07-28T06:08:55;2.83;;;1.80;;
22191;SDS011;11261;52.456;10.850;2023-07-28T06:11:24;2.10;;;1.90;;
22191;SDS011;11261;52.456;10.850;2023-07-28T06:13:52;2.10;;;1.90;;
22191;SDS011;11261;52.456;10.850;2023-07-28T06:16:20;1.63;;;1.52;;
22191;SDS011;11261;52.456;10.850;2023-07-28T06:18:49;2.53;;;1.83;;
22191;SDS011;11261;52.456;10.850;2023-07-28T06:21:17;4.72;;;2.17;;
22191;SDS011;11261;52.456;10.850;2023-07-28T06:23:46;2.00;;;1.75;;
22191;SDS011;11261;52.456;10.850;2023-07-28T06:26:15;3.67;;;2.13;;
22191;SDS011;11261;52.456;10.850;2023-07-28T06:28:43;2.50;;;2.00;;
22191;SDS011;11261;52.456;10.850;2023-07-28T06:31:12;2.25;;;1.52;;
22191;SDS011;11261;52.456;10.850;2023-07-28T06:33:40;3.80;;;1.90;;
22191;SDS011;11261;52.456;10.850;2023-07-28T06:36:08;3.40;;;2.03;;
22191;SDS011;11261;52.456;10.850;2023-07-28T06:38:37;2.08;;;1.20;;
22191;SDS011;11261;52.456;10.850;2023-07-28T06:41:07;2.88;;;1.48;;
22191;SDS011;11261;52.456;10.850;2023-07-28T06:43:35;2.45;;;1.67;;
22191;SDS011;11261;52.456;10.850;2023-07-28T06:46:03;1.60;;;1.50;;
22191;SDS011;11261;52.456;10.850;2023-07-28T06:48:32;2.97;;;1.65;;
22191;SDS011;11261;52.456;10.850;2023-07-28T06:51:00;1.63;;;1.52;;
22191;SDS011;11261;52.456;10.850;2023-07-28T06:53:28;2.00;;;1.60;;
22191;SDS011;11261;52.456;10.850;2023-07-28T06:55:57;4.95;;;1.67;;
22191;SDS011;11261;52.456;10.850;2023-07-28T06:58:26;2.03;;;1.70;;
22191;SDS011;11261;52.456;10.850;2023-07-28T07:00:55;1.92;;;1.70;;
22191;SDS011;11261;52.456;10.850;2023-07-28T07:03:24;2.90;;;1.85;;
22191;SDS011;11261;52.456;10.850;2023-07-28T07:05:52;3.35;;;1.88;;
22191;SDS011;11261;52.456;10.850;2023-07-28T07:08:20;2.25;;;1.70;;
22191;SDS011;11261;52.456;10.850;2023-07-28T07:10:49;4.20;;;2.53;;
22191;SDS011;11261;52.456;10.850;2023-07-28T07:13:17;3.08;;;2.03;;
22191;SDS011;11261;52.456;10.850;2023-07-28T07:15:47;2.97;;;1.90;;
22191;SDS011;11261;52.456;10.850;2023-07-28T07:18:15;4.22;;;2.42;;
22191;SDS011;11261;52.456;10.850;2023-07-28T07:20:43;3.92;;;2.00;;
22191;SDS011;11261;52.456;10.850;2023-07-28T07:23:12;2.40;;;2.00;;
22191;SDS011;11261;52.456;10.850;2023-07-28T07:25:40;4.05;;;2.50;;
22191;SDS011;11261;52.456;10.850;2023-07-28T07:28:08;3.67;;;2.20;;
22191;SDS011;11261;52.456;10.850;2023-07-28T07:30:37;2.03;;;1.80;;
22191;SDS011;11261;52.456;10.850;2023-07-28T07:33:07;5.90;;;2.80;;
22191;SDS011;11261;52.456;10.850;2023-07-28T07:35:36;3.85;;;3.03;;
22191;SDS011;11261;52.456;10.850;2023-07-28T07:38:05;2.80;;;2.25;;
22191;SDS011;11261;52.456;10.850;2023-07-28T07:40:35;3.35;;;2.00;;
22191;SDS011;11261;52.456;10.850;2023-07-28T07:43:04;2.60;;;2.40;;
22191;SDS011;11261;52.456;10.850;2023-07-28T07:45:32;3.05;;;2.53;;
22191;SDS011;11261;52.456;10.850;2023-07-28T07:48:00;2.78;;;2.40;;
22191;SDS011;11261;52.456;10.850;2023-07-28T07:50:31;2.53;;;2.30;;
22191;SDS011;11261;52.456;10.850;2023-07-28T07:52:59;2.50;;;2.05;;
22191;SDS011;11261;52.456;10.850;2023-07-28T07:55:28;2.30;;;2.10;;
22191;SDS011;11261;52.456;10.850;2023-07-28T07:57:57;2.65;;;2.00;;
22191;SDS011;11261;52.456;10.850;2023-07-28T08:00:26;2.53;;;2.00;;
22191;SDS011;11261;52.456;10.850;2023-07-28T08:02:54;3.10;;;2.13;;
22191;SDS011;11261;52.456;10.850;2023-07-28T08:05:22;1.73;;;1.63;;
22191;SDS011;11261;52.456;10.850;2023-07-28T08:07:52;2.38;;;2.03;;
22191;SDS011;11261;52.456;10.850;2023-07-28T08:10:21;2.55;;;2.30;;
22191;SDS011;11261;52.456;10.850;2023-07-28T08:12:50;2.45;;;2.25;;
22191;SDS011;11261;52.456;10.850;2023-07-28T08:15:18;2.35;;;2.10;;
22191;SDS011;11261;52.456;10.850;2023-07-28T08:17:46;2.35;;;2.15;;
22191;SDS011;11261;52.456;10.850;2023-07-28T08:20:15;3.20;;;1.98;;
22191;SDS011;11261;52.456;10.850;2023-07-28T08:22:43;2.60;;;2.38;;
22191;SDS011;11261;52.456;10.850;2023-07-28T08:25:13;2.80;;;2.17;;
22191;SDS011;11261;52.456;10.850;2023-07-28T08:27:41;2.22;;;2.00;;
22191;SDS011;11261;52.456;10.850;2023-07-28T08:30:10;2.30;;;2.00;;
22191;SDS011;11261;52.456;10.850;2023-07-28T08:32:39;2.10;;;1.90;;
22191;SDS011;11261;52.456;10.850;2023-07-28T08:35:08;2.85;;;2.20;;
22191;SDS011;11261;52.456;10.850;2023-07-28T08:37:36;3.20;;;2.05;;
22191;SDS011;11261;52.456;10.850;2023-07-28T08:40:05;2.05;;;1.85;;
22191;SDS011;11261;52.456;10.850;2023-07-28T08:42:37;3.70;;;1.88;;
22191;SDS011;11261;52.456;10.850;2023-07-28T08:45:06;4.97;;;1.88;;
22191;SDS011;11261;52.456;10.850;2023-07-28T08:47:35;2.30;;;1.70;;
22191;SDS011;11261;52.456;10.850;2023-07-28T08:50:05;2.03;;;1.83;;
22191;SDS011;11261;52.456;10.850;2023-07-28T08:52:33;3.28;;;1.95;;
22191;SDS011;11261;52.456;10.850;2023-07-28T08:55:02;4.50;;;1.88;;
22191;SDS011;11261;52.456;10.850;2023-07-28T08:57:30;4.35;;;1.98;;
22191;SDS011;11261;52.456;10.850;2023-07-28T09:00:00;3.17;;;2.00;;
22191;SDS011;11261;52.456;10.850;2023-07-28T09:02:35;2.38;;;2.13;;
22191;SDS011;11261;52.456;10.850;2023-07-28T09:05:04;2.30;;;2.10;;
22191;SDS011;11261;52.456;10.850;2023-07-28T09:07:36;3.25;;;2.15;;
22191;SDS011;11261;52.456;10.850;2023-07-28T09:10:05;2.58;;;2.28;;
22191;SDS011;11261;52.456;10.850;2023-07-28T09:12:34;2.55;;;2.13;;
22191;SDS011;11261;52.456;10.850;2023-07-28T09:15:06;3.55;;;2.50;;
22191;SDS011;11261;52.456;10.850;2023-07-28T09:17:40;3.92;;;2.28;;
22191;SDS011;11261;52.456;10.850;2023-07-28T09:20:12;7.72;;;4.00;;
22191;SDS011;11261;52.456;10.850;2023-07-28T09:22:43;3.13;;;2.60;;
22191;SDS011;11261;52.456;10.850;2023-07-28T09:25:14;3.25;;;2.05;;
22191;SDS011;11261;52.456;10.850;2023-07-28T09:27:49;2.63;;;2.33;;
22191;SDS011;11261;52.456;10.850;2023-07-28T09:30:20;3.60;;;2.40;;
22191;SDS011;11261;52.456;10.850;2023-07-28T09:32:50;2.33;;;2.13;;
22191;SDS011;11261;52.456;10.850;2023-07-28T09:35:20;4.40;;;2.25;;
22191;SDS011;11261;52.456;10.850;2023-07-28T09:37:49;4.63;;;2.17;;
22191;SDS011;11261;52.456;10.850;2023-07-28T09:40:20;2.08;;;1.88;;
22191;SDS011;11261;52.456;10.850;2023-07-28T09:42:49;2.40;;;2.20;;
22191;SDS011;11261;52.456;10.850;2023-07-28T09:45:23;2.90;;;2.10;;
22191;SDS011;11261;52.456;10.850;2023-07-28T09:48:05;3.80;;;2.20;;
22191;SDS011;11261;52.456;10.850;2023-07-28T09:50:36;2.75;;;2.55;;
22191;SDS011;11261;52.456;10.850;2023-07-28T09:53:07;2.35;;;2.15;;
22191;SDS011;11261;52.456;10.850;2023-07-28T09:55:38;2.55;;;2.25;;
22191;SDS011;11261;52.456;10.850;2023-07-28T09:58:09;2.00;;;1.88;;
22191;SDS011;11261;52.456;10.850;2023-07-28T10:00:40;2.88;;;2.42;;
22191;SDS011;11261;52.456;10.850;2023-07-28T10:03:09;2.67;;;2.20;;
22191;SDS011;11261;52.456;10.850;2023-07-28T10:05:39;2.40;;;2.10;;
22191;SDS011;11261;52.456;10.850;2023-07-28T10:08:08;2.28;;;2.08;;
22191;SDS011;11261;52.456;10.850;2023-07-28T10:10:37;2.75;;;2.40;;
22191;SDS011;11261;52.456;10.850;2023-07-28T10:13:18;3.00;;;2.60;;
22191;SDS011;11261;52.456;10.850;2023-07-28T10:15:49;2.60;;;2.40;;
22191;SDS011;11261;52.456;10.850;2023-07-28T10:18:19;4.63;;;2.30;;
22191;SDS011;11261;52.456;10.850;2023-07-28T10:20:48;2.80;;;2.25;;
22191;SDS011;11261;52.456;10.850;2023-07-28T10:23:20;2.90;;;2.33;;
22191;SDS011;11261;52.456;10.850;2023-07-28T10:25:55;4.10;;;2.35;;
22191;SDS011;11261;52.456;10.850;2023-07-28T10:28:25;4.68;;;2.03;;
22191;SDS011;11261;52.456;10.850;2023-07-28T10:30:57;3.63;;;2.65;;
22191;SDS011;11261;52.456;10.850;2023-07-28T10:33:26;4.15;;;2.40;;
22191;SDS011;11261;52.456;10.850;2023-07-28T10:35:59;3.90;;;2.50;;
22191;SDS011;11261;52.456;10.850;2023-07-28T10:38:38;3.50;;;2.47;;
22191;SDS011;11261;52.456;10.850;2023-07-28T10:41:08;5.10;;;2.30;;
22191;SDS011;11261;52.456;10.850;2023-07-28T10:43:39;4.55;;;2.42;;
22191;SDS011;11261;52.456;10.850;2023-07-28T10:46:10;4.72;;;2.20;;
22191;SDS011;11261;52.456;10.850;2023-07-28T10:48:41;2.33;;;2.08;;
22191;SDS011;11261;52.456;10.850;2023-07-28T10:51:11;2.75;;;2.30;;
22191;SDS011;11261;52.456;10.850;2023-07-28T10:53:49;2.63;;;2.15;;
22191;SDS011;11261;52.456;10.850;2023-07-28T10:56:18;2.58;;;1.92;;
22191;SDS011;11261;52.456;10.850;2023-07-28T10:58:46;2.33;;;2.08;;
22191;SDS011;11261;52.456;10.850;2023-07-28T11:01:16;4.63;;;2.67;;
22191;SDS011;11261;52.456;10.850;2023-07-28T11:03:45;2.47;;;2.22;;
22191;SDS011;11261;52.456;10.850;2023-07-28T11:06:14;2.20;;;1.95;;
22191;SDS011;11261;52.456;10.850;2023-07-28T11:08:43;3.92;;;2.05;;
22191;SDS011;11261;52.456;10.850;2023-07-28T11:11:12;4.03;;;2.30;;
22191;SDS011;11261;52.456;10.850;2023-07-28T11:13:41;3.35;;;2.25;;
22191;SDS011;11261;52.456;10.850;2023-07-28T11:16:09;4.55;;;1.90;;
22191;SDS011;11261;52.456;10.850;2023-07-28T11:18:40;3.17;;;2.40;;
22191;SDS011;11261;52.456;10.850;2023-07-28T11:21:08;1.88;;;1.73;;
22191;SDS011;11261;52.456;10.850;2023-07-28T11:23:38;1.85;;;1.75;;
22191;SDS011;11261;52.456;10.850;2023-07-28T11:26:11;2.22;;;1.73;;
22191;SDS011;11261;52.456;10.850;2023-07-28T11:28:40;2.08;;;1.90;;
22191;SDS011;11261;52.456;10.850;2023-07-28T11:31:08;1.73;;;1.50;;
22191;SDS011;11261;52.456;10.850;2023-07-28T11:33:37;3.58;;;1.80;;
22191;SDS011;11261;52.456;10.850;2023-07-28T11:36:08;1.67;;;1.55;;
22191;SDS011;11261;52.456;10.850;2023-07-28T11:38:36;1.42;;;1.33;;
22191;SDS011;11261;52.456;10.850;2023-07-28T11:41:04;2.10;;;1.40;;
22191;SDS011;11261;52.456;10.850;2023-07-28T11:43:33;1.77;;;1.50;;
22191;SDS011;11261;52.456;10.850;2023-07-28T11:46:02;1.40;;;1.30;;
22191;SDS011;11261;52.456;10.850;2023-07-28T11:48:30;2.15;;;1.40;;
22191;SDS011;11261;52.456;10.850;2023-07-28T11:50:59;2.35;;;1.80;;
22191;SDS011;11261;52.456;10.850;2023-07-28T11:53:29;2.50;;;1.30;;
22191;SDS011;11261;52.456;10.850;2023-07-28T11:56:01;1.48;;;1.38;;
22191;SDS011;11261;52.456;10.850;2023-07-28T11:58:29;1.52;;;1.42;;
22191;SDS011;11261;52.456;10.850;2023-07-28T12:00:58;1.58;;;1.48;;
22191;SDS011;11261;52.456;10.850;2023-07-28T12:03:35;1.50;;;1.40;;
22191;SDS011;11261;52.456;10.850;2023-07-28T12:06:05;1.40;;;1.30;;
22191;SDS011;11261;52.456;10.850;2023-07-28T12:09:05;2.72;;;1.73;;
22191;SDS011;11261;52.456;10.850;2023-07-28T12:11:35;1.58;;;1.45;;
22191;SDS011;11261;52.456;10.850;2023-07-28T12:14:07;1.45;;;1.35;;
22191;SDS011;11261;52.456;10.850;2023-07-28T12:16:39;1.55;;;1.45;;
22191;SDS011;11261;52.456;10.850;2023-07-28T12:19:11;1.90;;;1.55;;
22191;SDS011;11261;52.456;10.850;2023-07-28T12:21:39;2.42;;;1.60;;
22191;SDS011;11261;52.456;10.850;2023-07-28T12:24:09;3.13;;;1.33;;
22191;SDS011;11261;52.456;10.850;2023-07-28T12:26:37;1.60;;;1.50;;
22191;SDS011;11261;52.456;10.850;2023-07-28T12:29:06;1.60;;;1.50;;
22191;SDS011;11261;52.456;10.850;2023-07-28T12:31:37;1.50;;;1.40;;
22191;SDS011;11261;52.456;10.850;2023-07-28T12:34:08;2.15;;;1.58;;
22191;SDS011;11261;52.456;10.850;2023-07-28T12:36:37;1.60;;;1.30;;
22191;SDS011;11261;52.456;10.850;2023-07-28T12:39:10;1.30;;;1.20;;
22191;SDS011;11261;52.456;10.850;2023-07-28T12:41:41;1.35;;;1.25;;
22191;SDS011;11261;52.456;10.850;2023-07-28T12:44:31;1.50;;;1.40;;
22191;SDS011;11261;52.456;10.850;2023-07-28T12:47:02;1.30;;;1.20;;
22191;SDS011;11261;52.456;10.850;2023-07-28T12:49:32;1.75;;;1.17;;
22191;SDS011;11261;52.456;10.850;2023-07-28T12:52:05;2.22;;;1.40;;
22191;SDS011;11261;52.456;10.850;2023-07-28T12:54:46;1.30;;;1.20;;
22191;SDS011;11261;52.456;10.850;2023-07-28T12:57:15;8.32;;;1.42;;
22191;SDS011;11261;52.456;10.850;2023-07-28T12:59:43;1.20;;;1.10;;
22191;SDS011;11261;52.456;10.850;2023-07-28T13:02:14;1.20;;;1.10;;
22191;SDS011;11261;52.456;10.850;2023-07-28T13:04:42;1.40;;;1.30;;
22191;SDS011;11261;52.456;10.850;2023-07-28T13:07:11;1.48;;;1.20;;
22191;SDS011;11261;52.456;10.850;2023-07-28T13:09:42;1.83;;;1.00;;
22191;SDS011;11261;52.456;10.850;2023-07-28T13:12:11;1.13;;;1.02;;
22191;SDS011;11261;52.456;10.850;2023-07-28T13:14:42;1.88;;;1.38;;
22191;SDS011;11261;52.456;10.850;2023-07-28T13:17:11;2.38;;;1.40;;
22191;SDS011;11261;52.456;10.850;2023-07-28T13:19:41;2.55;;;1.30;;
22191;SDS011;11261;52.456;10.850;2023-07-28T13:22:09;1.45;;;1.33;;
22191;SDS011;11261;52.456;10.850;2023-07-28T13:24:37;1.50;;;1.40;;
22191;SDS011;11261;52.456;10.850;2023-07-28T13:27:06;4.03;;;1.10;;
22191;SDS011;11261;52.456;10.850;2023-07-28T13:29:35;1.55;;;1.00;;
22191;SDS011;11261;52.456;10.850;2023-07-28T13:32:04;1.13;;;1.00;;
22191;SDS011;11261;52.456;10.850;2023-07-28T13:34:43;1.65;;;1.30;;
22191;SDS011;11261;52.456;10.850;2023-07-28T13:37:11;2.58;;;1.23;;
22191;SDS011;11261;52.456;10.850;2023-07-28T13:39:41;1.77;;;1.02;;
22191;SDS011;11261;52.456;10.850;2023-07-28T13:42:09;1.33;;;1.00;;
22191;SDS011;11261;52.456;10.850;2023-07-28T13:44:41;1.65;;;1.20;;
22191;SDS011;11261;52.456;10.850;2023-07-28T13:47:23;1.40;;;1.17;;
22191;SDS011;11261;52.456;10.850;2023-07-28T13:49:52;1.15;;;1.05;;
22191;SDS011;11261;52.456;10.850;2023-07-28T13:52:20;1.55;;;1.20;;
22191;SDS011;11261;52.456;10.850;2023-07-28T13:54:48;1.27;;;1.02;;
22191;SDS011;11261;52.456;10.850;2023-07-28T13:57:20;1.23;;;1.10;;
22191;SDS011;11261;52.456;10.850;2023-07-28T13:59:49;1.85;;;1.25;;
22191;SDS011;11261;52.456;10.850;2023-07-28T14:02:17;1.17;;;1.08;;
22191;SDS011;11261;52.456;10.850;2023-07-28T14:04:46;1.70;;;1.20;;
22191;SDS011;11261;52.456;10.850;2023-07-28T14:07:14;1.48;;;1.33;;
22191;SDS011;11261;52.456;10.850;2023-07-28T14:09:42;1.30;;;1.10;;
22191;SDS011;11261;52.456;10.850;2023-07-28T14:12:11;4.18;;;1.50;;
22191;SDS011;11261;52.456;10.850;2023-07-28T14:17:38;2.22;;;1.40;;
22191;SDS011;11261;52.456;10.850;2023-07-28T14:20:07;3.22;;;1.40;;
22191;SDS011;11261;52.456;10.850;2023-07-28T14:22:36;4.10;;;1.83;;
22191;SDS011;11261;52.456;10.850;2023-07-28T14:25:05;1.70;;;1.23;;
22191;SDS011;11261;52.456;10.850;2023-07-28T14:27:33;1.48;;;1.38;;
22191;SDS011;11261;52.456;10.850;2023-07-28T14:30:02;1.52;;;1.20;;
22191;SDS011;11261;52.456;10.850;2023-07-28T14:32:30;2.42;;;1.50;;
22191;SDS011;11261;52.456;10.850;2023-07-28T14:35:00;1.50;;;1.40;;
22191;SDS011;11261;52.456;10.850;2023-07-28T14:37:28;1.33;;;1.20;;
22191;SDS011;11261;52.456;10.850;2023-07-28T14:39:56;3.20;;;1.60;;
22191;SDS011;11261;52.456;10.850;2023-07-28T14:42:24;2.58;;;1.73;;
22191;SDS011;11261;52.456;10.850;2023-07-28T14:44:53;1.45;;;1.30;;
22191;SDS011;11261;52.456;10.850;2023-07-28T14:47:21;2.30;;;1.60;;
22191;SDS011;11261;52.456;10.850;2023-07-28T14:49:49;2.90;;;1.70;;